sensor_id;sensor_type;location;lat;lon;timestamp;pressure;altitude;pressure_sealevel;temperature;humidity
7333;BME280;3707;43.618;25.342;2023-04-08T00:01:07;100562.09;;;8.87;100.00
7333;BME280;3707;43.618;25.342;2023-04-08T00:03:35;100573.88;;;9.06;100.00
7333;BME280;3707;43.618;25.342;2023-04-08T00:06:02;100549.44;;;8.68;100.00
7333;BME280;3707;43.618;25.342;2023-04-08T00:08:29;100575.06;;;8.88;100.00
7333;BME280;3707;43.618;25.342;2023-04-08T00:10:56;100576.16;;;8.95;100.00
7333;BME280;3707;43.618;25.342;2023-04-08T00:13:23;100574.75;;;8.78;100.00
7333;BME280;3707;43.618;25.342;2023-04-08T00:15:49;100572.44;;;8.87;100.00
7333;BME280;3707;43.618;25.342;2023-04-08T00:18:16;100571.97;;;9.00;100.00
7333;BME280;3707;43.618;25.342;2023-04-08T00:20:44;100578.06;;;9.02;100.00
7333;BME280;3707;43.618;25.342;2023-04-08T00:23:11;100576.16;;;8.95;100.00
7333;BME280;3707;43.618;25.342;2023-04-08T00:25:38;100576.91;;;8.92;100.00
7333;BME280;3707;43.618;25.342;2023-04-08T00:28:05;100580.44;;;8.94;100.00
7333;BME280;3707;43.618;25.342;2023-04-08T00:30:32;100584.00;;;9.00;100.00
7333;BME280;3707;43.618;25.342;2023-04-08T00:32:59;100580.66;;;9.02;100.00
7333;BME280;3707;43.618;25.342;2023-04-08T00:35:26;100578.97;;;9.04;100.00
7333;BME280;3707;43.618;25.342;2023-04-08T00:37:54;100580.09;;;9.12;100.00
7333;BME280;3707;43.618;25.342;2023-04-08T00:40:21;100576.47;;;9.07;100.00
7333;BME280;3707;43.618;25.342;2023-04-08T00:42:48;100552.66;;;8.87;100.00
7333;BME280;3707;43.618;25.342;2023-04-08T00:45:14;100562.03;;;8.84;100.00
7333;BME280;3707;43.618;25.342;2023-04-08T00:47:41;100542.63;;;8.70;100.00
7333;BME280;3707;43.618;25.342;2023-04-08T00:50:09;100547.34;;;8.55;100.00
7333;BME280;3707;43.618;25.342;2023-04-08T00:52:36;100564.78;;;8.62;100.00
7333;BME280;3707;43.618;25.342;2023-04-08T00:55:05;100540.25;;;8.22;100.00
7333;BME280;3707;43.618;25.342;2023-04-08T00:57:32;100565.50;;;8.29;100.00
7333;BME280;3707;43.618;25.342;2023-04-08T00:59:59;100556.28;;;8.37;100.00
7333;BME280;3707;43.618;25.342;2023-04-08T01:02:30;100555.66;;;8.44;100.00
7333;BME280;3707;43.618;25.342;2023-04-08T01:05:03;100556.84;;;8.56;100.00
7333;BME280;3707;43.618;25.342;2023-04-08T01:07:33;100554.31;;;8.57;100.00
7333;BME280;3707;43.618;25.342;2023-04-08T01:10:02;100440.25;;;7.90;100.00
7333;BME280;3707;43.618;25.342;2023-04-08T01:12:36;100552.69;;;8.61;100.00
7333;BME280;3707;43.618;25.342;2023-04-08T01:15:08;100554.53;;;8.65;100.00
7333;BME280;3707;43.618;25.342;2023-04-08T01:17:37;100549.44;;;8.68;100.00
7333;BME280;3707;43.618;25.342;2023-04-08T01:20:06;100549.75;;;8.77;100.00
7333;BME280;3707;43.618;25.342;2023-04-08T01:22:43;100551.59;;;8.81;100.00
7333;BME280;3707;43.618;25.342;2023-04-08T01:25:16;100557.44;;;8.75;100.00
7333;BME280;3707;43.618;25.342;2023-04-08T01:27:47;100557.28;;;8.69;100.00
7333;BME280;3707;43.618;25.342;2023-04-08T01:30:16;100542.19;;;8.55;100.00
7333;BME280;3707;43.618;25.342;2023-04-08T01:32:45;100552.69;;;8.61;100.00
7333;BME280;3707;43.618;25.342;2023-04-08T01:35:14;100539.53;;;8.53;100.00
7333;BME280;3707;43.618;25.342;2023-04-08T01:37:41;100540.91;;;8.42;100.00
7333;BME280;3707;43.618;25.342;2023-04-08T01:40:09;100535.16;;;8.24;100.00
7333;BME280;3707;43.618;25.342;2023-04-08T01:42:37;100517.75;;;8.18;100.00
7333;BME280;3707;43.618;25.342;2023-04-08T01:45:06;100545.59;;;8.27;100.00
7333;BME280;3707;43.618;25.342;2023-04-08T01:47:36;100541.78;;;8.16;100.00
7333;BME280;3707;43.618;25.342;2023-04-08T01:50:05;100540.81;;;8.12;100.00
7333;BME280;3707;43.618;25.342;2023-04-08T01:52:34;100545.28;;;8.18;100.00
7333;BME280;3707;43.618;25.342;2023-04-08T01:55:01;100538.94;;;8.08;100.00
7333;BME280;3707;43.618;25.342;2023-04-08T01:57:31;100548.75;;;8.18;100.00
7333;BME280;3707;43.618;25.342;2023-04-08T02:00:01;100545.28;;;8.18;100.00
7333;BME280;3707;43.618;25.342;2023-04-08T02:02:31;100543.56;;;8.18;100.00
7333;BME280;3707;43.618;25.342;2023-04-08T02:04:58;100480.88;;;7.69;100.00
7333;BME280;3707;43.618;25.342;2023-04-08T02:07:25;100554.63;;;8.14;100.00
7333;BME280;3707;43.618;25.342;2023-04-08T02:09:52;100550.44;;;8.18;100.00
7333;BME280;3707;43.618;25.342;2023-04-08T02:12:19;100545.25;;;8.16;100.00
7333;BME280;3707;43.618;25.342;2023-04-08T02:14:45;100529.50;;;8.09;100.00
7333;BME280;3707;43.618;25.342;2023-04-08T02:17:18;100542.84;;;8.22;100.00
7333;BME280;3707;43.618;25.342;2023-04-08T02:19:52;100554.22;;;8.27;100.00
7333;BME280;3707;43.618;25.342;2023-04-08T02:22:27;100542.03;;;8.23;100.00
7333;BME280;3707;43.618;25.342;2023-04-08T02:24:57;100550.34;;;8.15;100.00
7333;BME280;3707;43.618;25.342;2023-04-08T02:27:25;100517.97;;;7.99;100.00
7333;BME280;3707;43.618;25.342;2023-04-08T02:29:54;100520.56;;;7.99;100.00
7333;BME280;3707;43.618;25.342;2023-04-08T02:32:22;100518.97;;;8.03;100.00
7333;BME280;3707;43.618;25.342;2023-04-08T02:34:52;100545.44;;;8.22;100.00
7333;BME280;3707;43.618;25.342;2023-04-08T02:37:20;100527.00;;;8.12;100.00
7333;BME280;3707;43.618;25.342;2023-04-08T02:39:46;100539.94;;;8.12;100.00
7333;BME280;3707;43.618;25.342;2023-04-08T02:42:13;100542.50;;;8.12;100.00
7333;BME280;3707;43.618;25.342;2023-04-08T02:44:40;100538.25;;;8.14;100.00
7333;BME280;3707;43.618;25.342;2023-04-08T02:47:07;100529.44;;;8.07;100.00
7333;BME280;3707;43.618;25.342;2023-04-08T02:49:33;100551.03;;;8.09;100.00
7333;BME280;3707;43.618;25.342;2023-04-08T02:52:01;100537.50;;;8.16;100.00
7333;BME280;3707;43.618;25.342;2023-04-08T02:54:28;100542.25;;;8.04;100.00
7333;BME280;3707;43.618;25.342;2023-04-08T02:56:55;100543.31;;;8.09;100.00
7333;BME280;3707;43.618;25.342;2023-04-08T02:59:22;100537.25;;;8.09;100.00
7333;BME280;3707;43.618;25.342;2023-04-08T03:01:49;100542.25;;;8.04;100.00
7333;BME280;3707;43.618;25.342;2023-04-08T03:04:15;100528.13;;;7.93;100.00
7333;BME280;3707;43.618;25.342;2023-04-08T03:06:42;100475.28;;;7.57;100.00
7333;BME280;3707;43.618;25.342;2023-04-08T03:09:10;100540.41;;;8.00;100.00
7333;BME280;3707;43.618;25.342;2023-04-08T03:11:37;100536.66;;;7.90;100.00
7333;BME280;3707;43.618;25.342;2023-04-08T03:14:04;100548.16;;;8.00;100.00
7333;BME280;3707;43.618;25.342;2023-04-08T03:16:31;100551.69;;;8.04;100.00
7333;BME280;3707;43.618;25.342;2023-04-08T03:18:57;100559.50;;;8.05;100.00
7333;BME280;3707;43.618;25.342;2023-04-08T03:21:24;100548.38;;;8.06;100.00
7333;BME280;3707;43.618;25.342;2023-04-08T03:23:51;100562.63;;;8.22;100.00
7333;BME280;3707;43.618;25.342;2023-04-08T03:26:19;100564.78;;;8.35;100.00
7333;BME280;3707;43.618;25.342;2023-04-08T03:28:46;100558.44;;;8.25;100.00
7333;BME280;3707;43.618;25.342;2023-04-08T03:31:13;100544.63;;;8.23;100.00
7333;BME280;3707;43.618;25.342;2023-04-08T03:33:39;100562.38;;;8.39;100.00
7333;BME280;3707;43.618;25.342;2023-04-08T03:36:06;100569.97;;;8.35;100.00
7333;BME280;3707;43.618;25.342;2023-04-08T03:38:34;100566.81;;;8.43;100.00
7333;BME280;3707;43.618;25.342;2023-04-08T03:41:01;100570.75;;;8.32;100.00
7333;BME280;3707;43.618;25.342;2023-04-08T03:43:29;100572.44;;;8.30;100.00
7333;BME280;3707;43.618;25.342;2023-04-08T03:45:56;100568.91;;;8.28;100.00
7333;BME280;3707;43.618;25.342;2023-04-08T03:48:22;100556.59;;;8.21;100.00
7333;BME280;3707;43.618;25.342;2023-04-08T03:50:49;100563.59;;;8.25;100.00
7333;BME280;3707;43.618;25.342;2023-04-08T03:53:16;100560.84;;;8.19;100.00
7333;BME280;3707;43.618;25.342;2023-04-08T03:55:43;100564.50;;;8.26;100.00
7333;BME280;3707;43.618;25.342;2023-04-08T03:58:10;100565.28;;;8.23;100.00
7333;BME280;3707;43.618;25.342;2023-04-08T04:00:38;100566.25;;;8.27;100.00
7333;BME280;3707;43.618;25.342;2023-04-08T04:03:05;100570.66;;;8.04;100.00
7333;BME280;3707;43.618;25.342;2023-04-08T04:05:33;100556.72;;;7.99;100.00
7333;BME280;3707;43.618;25.342;2023-04-08T04:08:00;100567.78;;;7.95;100.00
7333;BME280;3707;43.618;25.342;2023-04-08T04:10:26;100568.50;;;7.91;100.00
7333;BME280;3707;43.618;25.342;2023-04-08T04:12:53;100579.38;;;7.81;100.00
7333;BME280;3707;43.618;25.342;2023-04-08T04:15:20;100576.03;;;7.85;100.00
7333;BME280;3707;43.618;25.342;2023-04-08T04:17:48;100569.78;;;7.78;100.00
7333;BME280;3707;43.618;25.342;2023-04-08T04:20:15;100574.56;;;7.91;100.00
7333;BME280;3707;43.618;25.342;2023-04-08T04:22:42;100573.00;;;7.96;100.00
7333;BME280;3707;43.618;25.342;2023-04-08T04:25:09;100576.56;;;8.00;100.00
7333;BME280;3707;43.618;25.342;2023-04-08T04:27:36;100572.06;;;7.94;100.00
7333;BME280;3707;43.618;25.342;2023-04-08T04:30:03;100579.47;;;8.11;100.00
7333;BME280;3707;43.618;25.342;2023-04-08T04:32:31;100579.56;;;8.12;100.00
7333;BME280;3707;43.618;25.342;2023-04-08T04:35:00;100570.53;;;8.26;100.00
7333;BME280;3707;43.618;25.342;2023-04-08T04:37:26;100575.44;;;8.19;100.00
7333;BME280;3707;43.618;25.342;2023-04-08T04:39:53;100571.00;;;8.15;100.00
7333;BME280;3707;43.618;25.342;2023-04-08T04:42:20;100569.38;;;8.17;100.00
7333;BME280;3707;43.618;25.342;2023-04-08T04:44:47;100570.91;;;8.12;100.00
7333;BME280;3707;43.618;25.342;2023-04-08T04:47:13;100567.00;;;7.97;100.00
7333;BME280;3707;43.618;25.342;2023-04-08T04:49:41;100579.09;;;8.25;100.00
7333;BME280;3707;43.618;25.342;2023-04-08T04:52:09;100587.81;;;8.54;100.00
7333;BME280;3707;43.618;25.342;2023-04-08T04:54:36;100593.28;;;8.63;100.00
7333;BME280;3707;43.618;25.342;2023-04-08T04:57:03;100594.44;;;8.73;100.00
7333;BME280;3707;43.618;25.342;2023-04-08T04:59:30;100598.97;;;8.80;100.00
7333;BME280;3707;43.618;25.342;2023-04-08T05:01:56;100600.75;;;8.82;100.00
7333;BME280;3707;43.618;25.342;2023-04-08T05:04:24;100595.72;;;8.87;100.00
7333;BME280;3707;43.618;25.342;2023-04-08T05:06:50;100611.47;;;8.94;100.00
7333;BME280;3707;43.618;25.342;2023-04-08T05:09:19;100611.22;;;9.15;100.00
7333;BME280;3707;43.618;25.342;2023-04-08T05:11:45;100613.94;;;9.20;100.00
7333;BME280;3707;43.618;25.342;2023-04-08T05:14:12;100591.50;;;9.19;100.00
7333;BME280;3707;43.618;25.342;2023-04-08T05:16:39;100599.91;;;9.41;100.00
7333;BME280;3707;43.618;25.342;2023-04-08T05:19:06;100605.25;;;9.48;100.00
7333;BME280;3707;43.618;25.342;2023-04-08T05:21:32;100607.09;;;9.52;100.00
7333;BME280;3707;43.618;25.342;2023-04-08T05:23:59;100609.09;;;9.63;100.00
7333;BME280;3707;43.618;25.342;2023-04-08T05:26:27;100610.38;;;9.77;100.00
7333;BME280;3707;43.618;25.342;2023-04-08T05:28:54;100612.56;;;9.64;100.00
7333;BME280;3707;43.618;25.342;2023-04-08T05:31:21;100613.84;;;9.46;100.00
7333;BME280;3707;43.618;25.342;2023-04-08T05:33:48;100618.25;;;9.19;100.00
7333;BME280;3707;43.618;25.342;2023-04-08T05:36:14;100603.78;;;9.57;100.00
7333;BME280;3707;43.618;25.342;2023-04-08T05:38:41;100606.41;;;9.59;100.00
7333;BME280;3707;43.618;25.342;2023-04-08T05:41:08;100579.50;;;9.54;100.00
7333;BME280;3707;43.618;25.342;2023-04-08T05:43:37;100602.28;;;9.65;100.00
7333;BME280;3707;43.618;25.342;2023-04-08T05:46:07;100616.53;;;9.82;100.00
7333;BME280;3707;43.618;25.342;2023-04-08T05:48:33;100611.38;;;9.51;100.00
7333;BME280;3707;43.618;25.342;2023-04-08T05:51:00;100618.31;;;9.22;100.00
7333;BME280;3707;43.618;25.342;2023-04-08T05:53:28;100618.84;;;9.40;100.00
7333;BME280;3707;43.618;25.342;2023-04-08T05:55:55;100613.38;;;9.61;100.00
7333;BME280;3707;43.618;25.342;2023-04-08T05:58:21;100617.34;;;9.80;100.00
7333;BME280;3707;43.618;25.342;2023-04-08T06:00:49;100603.63;;;10.15;100.00
7333;BME280;3707;43.618;25.342;2023-04-08T06:03:16;100607.97;;;9.52;100.00
7333;BME280;3707;43.618;25.342;2023-04-08T06:05:43;100612.66;;;9.35;100.00
7333;BME280;3707;43.618;25.342;2023-04-08T06:08:10;100609.97;;;9.32;100.00
7333;BME280;3707;43.618;25.342;2023-04-08T06:10:36;100606.81;;;9.42;100.00
7333;BME280;3707;43.618;25.342;2023-04-08T06:13:03;100616.66;;;9.24;100.00
7333;BME280;3707;43.618;25.342;2023-04-08T06:15:30;100613.66;;;9.40;100.00
7333;BME280;3707;43.618;25.342;2023-04-08T06:17:58;100614.22;;;9.60;100.00
7333;BME280;3707;43.618;25.342;2023-04-08T06:20:25;100617.66;;;9.29;100.00
7333;BME280;3707;43.618;25.342;2023-04-08T06:22:52;100616.88;;;9.02;100.00
7333;BME280;3707;43.618;25.342;2023-04-08T06:25:19;100583.69;;;8.89;100.00
7333;BME280;3707;43.618;25.342;2023-04-08T06:27:46;100603.97;;;9.65;100.00
7333;BME280;3707;43.618;25.342;2023-04-08T06:30:13;100608.44;;;10.03;100.00
7333;BME280;3707;43.618;25.342;2023-04-08T06:32:40;100609.91;;;10.25;100.00
7333;BME280;3707;43.618;25.342;2023-04-08T06:35:08;100595.59;;;10.40;100.00
7333;BME280;3707;43.618;25.342;2023-04-08T06:37:35;100613.25;;;10.57;100.00
7333;BME280;3707;43.618;25.342;2023-04-08T06:40:03;100608.56;;;10.40;100.00
7333;BME280;3707;43.618;25.342;2023-04-08T06:42:31;100620.13;;;10.55;100.00
7333;BME280;3707;43.618;25.342;2023-04-08T06:44:57;100618.13;;;10.43;100.00
7333;BME280;3707;43.618;25.342;2023-04-08T06:47:24;100626.19;;;10.92;100.00
7333;BME280;3707;43.618;25.342;2023-04-08T06:49:51;100628.19;;;11.04;100.00
7333;BME280;3707;43.618;25.342;2023-04-08T06:52:20;100627.16;;;11.36;100.00
7333;BME280;3707;43.618;25.342;2023-04-08T06:54:46;100606.16;;;11.27;98.97
7333;BME280;3707;43.618;25.342;2023-04-08T06:57:13;100621.28;;;11.06;100.00
7333;BME280;3707;43.618;25.342;2023-04-08T06:59:40;100589.44;;;11.13;98.44
7333;BME280;3707;43.618;25.342;2023-04-08T07:02:07;100627.31;;;11.45;95.80
7333;BME280;3707;43.618;25.342;2023-04-08T07:04:33;100627.63;;;11.61;95.15
7333;BME280;3707;43.618;25.342;2023-04-08T07:07:00;100609.97;;;11.88;92.89
7333;BME280;3707;43.618;25.342;2023-04-08T07:09:28;100632.00;;;11.20;96.00
7333;BME280;3707;43.618;25.342;2023-04-08T07:11:55;100628.59;;;11.22;96.13
7333;BME280;3707;43.618;25.342;2023-04-08T07:14:22;100627.88;;;11.31;96.82
7333;BME280;3707;43.618;25.342;2023-04-08T07:16:49;100629.38;;;11.62;96.01
7333;BME280;3707;43.618;25.342;2023-04-08T07:19:16;100612.28;;;11.29;96.77
7333;BME280;3707;43.618;25.342;2023-04-08T07:21:43;100641.84;;;11.78;95.85
7333;BME280;3707;43.618;25.342;2023-04-08T07:24:09;100638.22;;;11.70;94.10
7333;BME280;3707;43.618;25.342;2023-04-08T07:26:38;100636.06;;;11.92;92.23
7333;BME280;3707;43.618;25.342;2023-04-08T07:29:05;100634.47;;;12.01;92.08
7333;BME280;3707;43.618;25.342;2023-04-08T07:31:32;100609.19;;;11.92;89.38
7333;BME280;3707;43.618;25.342;2023-04-08T07:33:59;100612.88;;;12.03;86.06
7333;BME280;3707;43.618;25.342;2023-04-08T07:36:25;100641.00;;;12.25;86.42
7333;BME280;3707;43.618;25.342;2023-04-08T07:38:52;100644.44;;;12.24;93.92
7333;BME280;3707;43.618;25.342;2023-04-08T07:41:19;100647.00;;;11.75;87.51
7333;BME280;3707;43.618;25.342;2023-04-08T07:43:47;100645.38;;;11.80;88.43
7333;BME280;3707;43.618;25.342;2023-04-08T07:46:14;100607.88;;;11.70;84.97
7333;BME280;3707;43.618;25.342;2023-04-08T07:48:41;100633.66;;;12.03;84.04
7333;BME280;3707;43.618;25.342;2023-04-08T07:51:08;100624.31;;;12.14;84.25
7333;BME280;3707;43.618;25.342;2023-04-08T07:53:35;100646.22;;;12.28;83.35
7333;BME280;3707;43.618;25.342;2023-04-08T07:56:02;100642.97;;;12.41;80.82
7333;BME280;3707;43.618;25.342;2023-04-08T07:58:29;100650.25;;;12.61;80.12
7333;BME280;3707;43.618;25.342;2023-04-08T08:00:58;100641.03;;;12.82;77.99
7333;BME280;3707;43.618;25.342;2023-04-08T08:03:25;100659.34;;;12.87;76.00
7333;BME280;3707;43.618;25.342;2023-04-08T08:05:52;100652.22;;;13.35;75.27
7333;BME280;3707;43.618;25.342;2023-04-08T08:08:18;100648.25;;;13.00;73.09
7333;BME280;3707;43.618;25.342;2023-04-08T08:10:45;100659.16;;;13.35;71.26
7333;BME280;3707;43.618;25.342;2023-04-08T08:13:12;100660.88;;;13.33;75.62
7333;BME280;3707;43.618;25.342;2023-04-08T08:15:41;100660.63;;;13.15;79.75
7333;BME280;3707;43.618;25.342;2023-04-08T08:18:09;100657.44;;;13.35;72.30
7333;BME280;3707;43.618;25.342;2023-04-08T08:20:36;100651.72;;;13.02;72.89
7333;BME280;3707;43.618;25.342;2023-04-08T08:23:03;100668.66;;;12.73;73.88
7333;BME280;3707;43.618;25.342;2023-04-08T08:25:29;100658.63;;;12.99;74.62
7333;BME280;3707;43.618;25.342;2023-04-08T08:27:56;100659.75;;;12.60;72.95
7333;BME280;3707;43.618;25.342;2023-04-08T08:30:23;100651.31;;;12.73;73.74
7333;BME280;3707;43.618;25.342;2023-04-08T08:32:50;100645.91;;;12.61;74.79
7333;BME280;3707;43.618;25.342;2023-04-08T08:35:19;100646.59;;;12.48;77.29
7333;BME280;3707;43.618;25.342;2023-04-08T08:37:45;100633.38;;;12.36;75.04
7333;BME280;3707;43.618;25.342;2023-04-08T08:40:13;100643.41;;;12.66;76.24
7333;BME280;3707;43.618;25.342;2023-04-08T08:42:39;100640.34;;;12.94;77.62
7333;BME280;3707;43.618;25.342;2023-04-08T08:45:07;100639.75;;;13.12;74.42
7333;BME280;3707;43.618;25.342;2023-04-08T08:47:34;100623.00;;;12.96;71.56
7333;BME280;3707;43.618;25.342;2023-04-08T08:50:01;100643.78;;;12.93;71.97
7333;BME280;3707;43.618;25.342;2023-04-08T08:52:29;100650.81;;;12.99;72.25
7333;BME280;3707;43.618;25.342;2023-04-08T08:54:57;100647.94;;;12.79;73.98
7333;BME280;3707;43.618;25.342;2023-04-08T08:57:25;100648.78;;;12.78;72.27
7333;BME280;3707;43.618;25.342;2023-04-08T08:59:52;100652.28;;;12.80;72.40
7333;BME280;3707;43.618;25.342;2023-04-08T09:02:23;100653.19;;;13.44;70.74
7333;BME280;3707;43.618;25.342;2023-04-08T09:04:56;100633.53;;;13.68;68.20
7333;BME280;3707;43.618;25.342;2023-04-08T09:07:24;100651.72;;;13.67;66.94
7333;BME280;3707;43.618;25.342;2023-04-08T09:09:53;100638.72;;;13.70;66.14
7333;BME280;3707;43.618;25.342;2023-04-08T09:12:21;100633.88;;;13.26;68.74
7333;BME280;3707;43.618;25.342;2023-04-08T09:14:48;100638.47;;;13.49;67.55
7333;BME280;3707;43.618;25.342;2023-04-08T09:17:15;100589.22;;;13.70;65.42
7333;BME280;3707;43.618;25.342;2023-04-08T09:20:04;100653.97;;;14.13;64.51
7333;BME280;3707;43.618;25.342;2023-04-08T09:22:34;100655.47;;;13.87;63.88
7333;BME280;3707;43.618;25.342;2023-04-08T09:25:21;100668.00;;;14.27;63.94
7333;BME280;3707;43.618;25.342;2023-04-08T09:27:48;100671.72;;;14.45;63.29
7333;BME280;3707;43.618;25.342;2023-04-08T09:30:16;100677.88;;;14.56;61.52
7333;BME280;3707;43.618;25.342;2023-04-08T09:32:46;100673.69;;;14.76;61.61
7333;BME280;3707;43.618;25.342;2023-04-08T09:35:14;100675.47;;;14.81;60.00
7333;BME280;3707;43.618;25.342;2023-04-08T09:37:41;100675.06;;;15.54;61.06
7333;BME280;3707;43.618;25.342;2023-04-08T09:40:10;100671.69;;;15.85;57.94
7333;BME280;3707;43.618;25.342;2023-04-08T09:42:40;100641.16;;;15.84;56.38
7333;BME280;3707;43.618;25.342;2023-04-08T09:45:11;100662.00;;;15.51;56.35
7333;BME280;3707;43.618;25.342;2023-04-08T09:47:43;100670.13;;;14.65;58.09
7333;BME280;3707;43.618;25.342;2023-04-08T09:50:15;100666.44;;;14.42;60.00
7333;BME280;3707;43.618;25.342;2023-04-08T09:52:46;100661.56;;;14.84;59.46
7333;BME280;3707;43.618;25.342;2023-04-08T09:55:21;100660.63;;;14.74;58.99
7333;BME280;3707;43.618;25.342;2023-04-08T09:57:51;100663.13;;;14.58;59.19
7333;BME280;3707;43.618;25.342;2023-04-08T10:00:24;100659.72;;;14.71;59.14
7333;BME280;3707;43.618;25.342;2023-04-08T10:02:55;100654.91;;;15.39;58.23
7333;BME280;3707;43.618;25.342;2023-04-08T10:05:26;100655.78;;;15.38;56.34
7333;BME280;3707;43.618;25.342;2023-04-08T10:07:55;100654.34;;;16.22;54.93
7333;BME280;3707;43.618;25.342;2023-04-08T10:10:24;100655.06;;;15.66;55.30
7333;BME280;3707;43.618;25.342;2023-04-08T10:12:51;100647.31;;;15.94;55.73
7333;BME280;3707;43.618;25.342;2023-04-08T10:15:23;100655.22;;;16.47;53.10
7333;BME280;3707;43.618;25.342;2023-04-08T10:17:50;100656.97;;;16.38;52.70
7333;BME280;3707;43.618;25.342;2023-04-08T10:20:42;100641.25;;;16.16;54.23
7333;BME280;3707;43.618;25.342;2023-04-08T10:23:10;100623.59;;;15.41;55.91
7333;BME280;3707;43.618;25.342;2023-04-08T10:25:40;100646.31;;;15.57;55.25
7333;BME280;3707;43.618;25.342;2023-04-08T10:28:23;100585.25;;;15.36;56.79
7333;BME280;3707;43.618;25.342;2023-04-08T10:30:50;100642.00;;;15.65;57.30
7333;BME280;3707;43.618;25.342;2023-04-08T10:33:20;100647.84;;;15.18;54.64
7333;BME280;3707;43.618;25.342;2023-04-08T10:35:48;100645.28;;;15.30;53.98
7333;BME280;3707;43.618;25.342;2023-04-08T10:38:16;100644.22;;;14.94;55.93
7333;BME280;3707;43.618;25.342;2023-04-08T10:40:44;100622.63;;;15.28;58.11
7333;BME280;3707;43.618;25.342;2023-04-08T10:43:13;100640.25;;;15.68;56.79
7333;BME280;3707;43.618;25.342;2023-04-08T10:45:41;100623.72;;;15.72;55.20
7333;BME280;3707;43.618;25.342;2023-04-08T10:48:13;100625.50;;;15.90;54.46
7333;BME280;3707;43.618;25.342;2023-04-08T10:50:40;100620.34;;;16.26;55.13
7333;BME280;3707;43.618;25.342;2023-04-08T10:53:07;100642.97;;;16.11;52.75
7333;BME280;3707;43.618;25.342;2023-04-08T10:55:35;100636.72;;;15.50;51.58
7333;BME280;3707;43.618;25.342;2023-04-08T10:58:08;100625.50;;;15.95;54.06
7333;BME280;3707;43.618;25.342;2023-04-08T11:00:38;100640.38;;;16.26;51.50
7333;BME280;3707;43.618;25.342;2023-04-08T11:03:06;100618.56;;;16.27;52.73
7333;BME280;3707;43.618;25.342;2023-04-08T11:05:33;100635.16;;;16.23;51.42
7333;BME280;3707;43.618;25.342;2023-04-08T11:08:01;100628.16;;;16.14;51.98
7333;BME280;3707;43.618;25.342;2023-04-08T11:10:28;100629.91;;;16.21;50.68
7333;BME280;3707;43.618;25.342;2023-04-08T11:12:56;100618.59;;;16.30;49.71
7333;BME280;3707;43.618;25.342;2023-04-08T11:15:25;100622.00;;;15.88;51.52
7333;BME280;3707;43.618;25.342;2023-04-08T11:17:52;100623.75;;;15.92;53.18
7333;BME280;3707;43.618;25.342;2023-04-08T11:20:19;100604.59;;;15.93;52.22
7333;BME280;3707;43.618;25.342;2023-04-08T11:22:46;100622.03;;;16.03;51.93
7333;BME280;3707;43.618;25.342;2023-04-08T11:25:14;100626.28;;;15.57;53.31
7333;BME280;3707;43.618;25.342;2023-04-08T11:27:40;100599.34;;;15.90;54.73
7333;BME280;3707;43.618;25.342;2023-04-08T11:30:08;100606.31;;;15.83;55.88
7333;BME280;3707;43.618;25.342;2023-04-08T11:32:38;100595.81;;;15.65;55.83
7333;BME280;3707;43.618;25.342;2023-04-08T11:35:06;100582.75;;;15.74;55.10
7333;BME280;3707;43.618;25.342;2023-04-08T11:37:36;100608.09;;;16.21;53.32
7333;BME280;3707;43.618;25.342;2023-04-08T11:40:08;100607.22;;;16.20;51.93
7333;BME280;3707;43.618;25.342;2023-04-08T11:42:36;100592.41;;;16.25;51.86
7333;BME280;3707;43.618;25.342;2023-04-08T11:45:09;100591.53;;;16.63;49.60
7333;BME280;3707;43.618;25.342;2023-04-08T11:47:38;100602.00;;;16.60;51.43
7333;BME280;3707;43.618;25.342;2023-04-08T11:50:06;100595.91;;;16.55;52.21
7333;BME280;3707;43.618;25.342;2023-04-08T11:52:40;100595.88;;;16.41;53.08
7333;BME280;3707;43.618;25.342;2023-04-08T11:55:08;100595.84;;;16.88;53.05
7333;BME280;3707;43.618;25.342;2023-04-08T11:57:35;100592.41;;;16.80;51.79
7333;BME280;3707;43.618;25.342;2023-04-08T12:00:02;100587.19;;;16.60;52.84
7333;BME280;3707;43.618;25.342;2023-04-08T12:02:31;100568.72;;;17.09;51.50
7333;BME280;3707;43.618;25.342;2023-04-08T12:04:59;100590.66;;;16.64;53.42
7333;BME280;3707;43.618;25.342;2023-04-08T12:07:26;100579.28;;;16.77;53.03
7333;BME280;3707;43.618;25.342;2023-04-08T12:09:53;100585.41;;;16.46;53.87
7333;BME280;3707;43.618;25.342;2023-04-08T12:12:20;100588.03;;;15.86;54.11
7333;BME280;3707;43.618;25.342;2023-04-08T12:14:47;100560.16;;;16.08;53.79
7333;BME280;3707;43.618;25.342;2023-04-08T12:17:14;100585.41;;;16.09;54.42
7333;BME280;3707;43.618;25.342;2023-04-08T12:19:41;100560.13;;;16.02;55.69
7333;BME280;3707;43.618;25.342;2023-04-08T12:22:09;100561.84;;;15.71;56.12
7333;BME280;3707;43.618;25.342;2023-04-08T12:24:36;100576.66;;;15.62;57.23
7333;BME280;3707;43.618;25.342;2023-04-08T12:27:03;100568.81;;;15.69;56.44
7333;BME280;3707;43.618;25.342;2023-04-08T12:29:30;100574.88;;;15.61;56.52
7333;BME280;3707;43.618;25.342;2023-04-08T12:31:56;100565.31;;;15.67;56.00
7333;BME280;3707;43.618;25.342;2023-04-08T12:34:23;100554.03;;;16.00;55.48
7333;BME280;3707;43.618;25.342;2023-04-08T12:36:50;100561.81;;;15.64;56.72
7333;BME280;3707;43.618;25.342;2023-04-08T12:39:18;100563.59;;;15.69;56.00
7333;BME280;3707;43.618;25.342;2023-04-08T12:41:45;100484.19;;;15.26;55.19
7333;BME280;3707;43.618;25.342;2023-04-08T12:44:12;100558.34;;;15.65;55.62
7333;BME280;3707;43.618;25.342;2023-04-08T12:46:39;100556.63;;;15.93;55.06
7333;BME280;3707;43.618;25.342;2023-04-08T12:49:06;100530.38;;;15.39;55.76
7333;BME280;3707;43.618;25.342;2023-04-08T12:51:33;100552.25;;;15.72;54.20
7333;BME280;3707;43.618;25.342;2023-04-08T12:54:00;100548.75;;;15.58;56.40
7333;BME280;3707;43.618;25.342;2023-04-08T12:56:29;100553.13;;;15.77;54.63
7333;BME280;3707;43.618;25.342;2023-04-08T12:58:56;100540.06;;;15.98;54.59
7333;BME280;3707;43.618;25.342;2023-04-08T13:01:23;100542.63;;;15.63;54.05
7333;BME280;3707;43.618;25.342;2023-04-08T13:03:50;100547.88;;;15.60;55.31